sensor_id;sensor_type;location;lat;lon;timestamp;pressure;altitude;pressure_sealevel;temperature;humidity
36726;BME280;44936;52.086;5.150;2023-11-21T00:00:21;101841.53;;;9.96;100.00
36726;BME280;44936;52.086;5.150;2023-11-21T00:02:46;101825.63;;;9.88;100.00
36726;BME280;44936;52.086;5.150;2023-11-21T00:05:12;101835.31;;;9.90;100.00
36726;BME280;44936;52.086;5.150;2023-11-21T00:07:40;101838.78;;;9.89;100.00
36726;BME280;44936;52.086;5.150;2023-11-21T00:10:06;101838.78;;;9.89;100.00
36726;BME280;44936;52.086;5.150;2023-11-21T00:12:33;101832.56;;;9.84;100.00
36726;BME280;44936;52.086;5.150;2023-11-21T00:14:59;101844.66;;;9.79;100.00
36726;BME280;44936;52.086;5.150;2023-11-21T00:17:24;101840.94;;;9.70;100.00
36726;BME280;44936;52.086;5.150;2023-11-21T00:19:50;101846.31;;;9.74;100.00
36726;BME280;44936;52.086;5.150;2023-11-21T00:22:17;101857.63;;;9.73;100.00
36726;BME280;44936;52.086;5.150;2023-11-21T00:24:42;101854.03;;;9.70;100.00
36726;BME280;44936;52.086;5.150;2023-11-21T00:27:08;101854.91;;;9.69;100.00
36726;BME280;44936;52.086;5.150;2023-11-21T00:29:33;101859.25;;;9.68;100.00
36726;BME280;44936;52.086;5.150;2023-11-21T00:31:58;101858.41;;;9.69;100.00
36726;BME280;44936;52.086;5.150;2023-11-21T00:34:24;101852.44;;;9.75;100.00
36726;BME280;44936;52.086;5.150;2023-11-21T00:36:52;101851.44;;;9.71;100.00
36726;BME280;44936;52.086;5.150;2023-11-21T00:39:17;101854.94;;;9.70;100.00
36726;BME280;44936;52.086;5.150;2023-11-21T00:41:42;101845.06;;;9.58;100.00
36726;BME280;44936;52.086;5.150;2023-11-21T00:44:09;101849.41;;;9.58;100.00
36726;BME280;44936;52.086;5.150;2023-11-21T00:46:35;101852.91;;;9.57;100.00
36726;BME280;44936;52.086;5.150;2023-11-21T00:49:01;101857.16;;;9.53;100.00
36726;BME280;44936;52.086;5.150;2023-11-21T00:51:26;101845.78;;;9.53;100.00
36726;BME280;44936;52.086;5.150;2023-11-21T00:53:51;101842.28;;;9.52;100.00
36726;BME280;44936;52.086;5.150;2023-11-21T00:56:16;101859.00;;;9.57;100.00
36726;BME280;44936;52.086;5.150;2023-11-21T00:58:42;101864.03;;;9.48;100.00
36726;BME280;44936;52.086;5.150;2023-11-21T01:01:09;101875.59;;;9.56;100.00
36726;BME280;44936;52.086;5.150;2023-11-21T01:03:34;101869.19;;;9.45;100.00
36726;BME280;44936;52.086;5.150;2023-11-21T01:06:00;101878.97;;;9.52;100.00
36726;BME280;44936;52.086;5.150;2023-11-21T01:08:25;101886.84;;;9.54;100.00
36726;BME280;44936;52.086;5.150;2023-11-21T01:10:50;101883.31;;;9.52;100.00
36726;BME280;44936;52.086;5.150;2023-11-21T01:13:16;101882.34;;;9.47;100.00
36726;BME280;44936;52.086;5.150;2023-11-21T01:15:41;101895.69;;;9.57;100.00
36726;BME280;44936;52.086;5.150;2023-11-21T01:18:07;101893.00;;;9.54;100.00
36726;BME280;44936;52.086;5.150;2023-11-21T01:20:34;101892.25;;;9.60;100.00
36726;BME280;44936;52.086;5.150;2023-11-21T01:22:59;101851.34;;;9.29;100.00
36726;BME280;44936;52.086;5.150;2023-11-21T01:25:25;101850.59;;;9.34;100.00
36726;BME280;44936;52.086;5.150;2023-11-21T01:27:51;101893.97;;;9.59;100.00
36726;BME280;44936;52.086;5.150;2023-11-21T01:30:16;101873.63;;;9.48;100.00
36726;BME280;44936;52.086;5.150;2023-11-21T01:32:42;101894.16;;;9.67;100.00
36726;BME280;44936;52.086;5.150;2023-11-21T01:35:07;101853.25;;;9.36;100.00
36726;BME280;44936;52.086;5.150;2023-11-21T01:37:34;101848.19;;;9.44;100.00
36726;BME280;44936;52.086;5.150;2023-11-21T01:40:00;101880.19;;;9.67;100.00
36726;BME280;44936;52.086;5.150;2023-11-21T01:42:26;101900.69;;;9.84;100.00
36726;BME280;44936;52.086;5.150;2023-11-21T01:44:52;101910.44;;;9.90;100.00
36726;BME280;44936;52.086;5.150;2023-11-21T01:47:19;101879.50;;;9.75;100.00
36726;BME280;44936;52.086;5.150;2023-11-21T01:49:46;101893.69;;;9.83;100.00
36726;BME280;44936;52.086;5.150;2023-11-21T01:52:12;101917.66;;;10.00;100.00
36726;BME280;44936;52.086;5.150;2023-11-21T01:54:38;101914.06;;;9.98;100.00
36726;BME280;44936;52.086;5.150;2023-11-21T01:57:04;101930.97;;;10.11;100.00
36726;BME280;44936;52.086;5.150;2023-11-21T01:59:34;101918.72;;;10.10;100.00
36726;BME280;44936;52.086;5.150;2023-11-21T02:02:02;101927.53;;;10.13;100.00
36726;BME280;44936;52.086;5.150;2023-11-21T02:04:27;101929.22;;;10.10;100.00
36726;BME280;44936;52.086;5.150;2023-11-21T02:06:53;101935.28;;;10.07;100.00
36726;BME280;44936;52.086;5.150;2023-11-21T02:09:25;101951.31;;;10.21;100.00
36726;BME280;44936;52.086;5.150;2023-11-21T02:11:51;101946.22;;;10.26;100.00
36726;BME280;44936;52.086;5.150;2023-11-21T02:14:16;101941.03;;;10.29;100.00
36726;BME280;44936;52.086;5.150;2023-11-21T02:16:45;101942.03;;;10.35;100.00
36726;BME280;44936;52.086;5.150;2023-11-21T02:19:17;101950.84;;;10.39;100.00
36726;BME280;44936;52.086;5.150;2023-11-21T02:21:45;101954.50;;;10.45;100.00
36726;BME280;44936;52.086;5.150;2023-11-21T02:24:11;101951.81;;;10.42;100.00
36726;BME280;44936;52.086;5.150;2023-11-21T02:26:36;101958.00;;;10.46;100.00
36726;BME280;44936;52.086;5.150;2023-11-21T02:29:02;101947.53;;;10.47;100.00
36726;BME280;44936;52.086;5.150;2023-11-21T02:31:29;101951.03;;;10.46;100.00
36726;BME280;44936;52.086;5.150;2023-11-21T02:33:55;101959.94;;;10.55;100.00
36726;BME280;44936;52.086;5.150;2023-11-21T02:36:20;101964.47;;;10.62;100.00
36726;BME280;44936;52.086;5.150;2023-11-21T02:38:47;101947.72;;;10.57;100.00
36726;BME280;44936;52.086;5.150;2023-11-21T02:41:12;101955.72;;;10.61;100.00
36726;BME280;44936;52.086;5.150;2023-11-21T02:43:38;101962.75;;;10.64;100.00
36726;BME280;44936;52.086;5.150;2023-11-21T02:46:04;101961.94;;;10.68;100.00
36726;BME280;44936;52.086;5.150;2023-11-21T02:48:29;101967.28;;;10.71;100.00
36726;BME280;44936;52.086;5.150;2023-11-21T02:50:55;101928.41;;;10.52;100.00
36726;BME280;44936;52.086;5.150;2023-11-21T02:53:21;101963.88;;;10.76;100.00
36726;BME280;44936;52.086;5.150;2023-11-21T02:55:46;101947.09;;;10.68;100.00
36726;BME280;44936;52.086;5.150;2023-11-21T02:58:11;101957.81;;;10.79;100.00
36726;BME280;44936;52.086;5.150;2023-11-21T03:00:37;101949.94;;;10.79;100.00
36726;BME280;44936;52.086;5.150;2023-11-21T03:03:02;101942.72;;;10.69;100.00
36726;BME280;44936;52.086;5.150;2023-11-21T03:05:29;101941.13;;;10.77;100.00
36726;BME280;44936;52.086;5.150;2023-11-21T03:07:54;101947.38;;;10.82;100.00
36726;BME280;44936;52.086;5.150;2023-11-21T03:10:20;101948.28;;;10.84;100.00
36726;BME280;44936;52.086;5.150;2023-11-21T03:12:45;101959.91;;;10.97;100.00
36726;BME280;44936;52.086;5.150;2023-11-21T03:15:11;101949.34;;;10.94;100.00
36726;BME280;44936;52.086;5.150;2023-11-21T03:17:37;101962.63;;;11.01;100.00
36726;BME280;44936;52.086;5.150;2023-11-21T03:20:02;101958.22;;;11.00;100.00
36726;BME280;44936;52.086;5.150;2023-11-21T03:22:29;101938.59;;;10.80;100.00
36726;BME280;44936;52.086;5.150;2023-11-21T03:24:54;101973.94;;;10.97;100.00
36726;BME280;44936;52.086;5.150;2023-11-21T03:27:19;101973.94;;;10.97;100.00
36726;BME280;44936;52.086;5.150;2023-11-21T03:29:46;101969.47;;;10.93;100.00
36726;BME280;44936;52.086;5.150;2023-11-21T03:32:12;101966.09;;;11.00;100.00
36726;BME280;44936;52.086;5.150;2023-11-21T03:34:53;101966.13;;;11.02;100.00
36726;BME280;44936;52.086;5.150;2023-11-21T03:37:18;101952.91;;;10.96;100.00
36726;BME280;44936;52.086;5.150;2023-11-21T03:39:46;101957.31;;;10.98;100.00
36726;BME280;44936;52.086;5.150;2023-11-21T03:42:11;101967.88;;;11.03;100.00
36726;BME280;44936;52.086;5.150;2023-11-21T03:44:36;101974.09;;;11.06;100.00
36726;BME280;44936;52.086;5.150;2023-11-21T03:47:02;101979.41;;;11.10;100.00
36726;BME280;44936;52.086;5.150;2023-11-21T03:49:27;101950.28;;;10.96;100.00
36726;BME280;44936;52.086;5.150;2023-11-21T03:51:54;101980.38;;;11.15;100.00
36726;BME280;44936;52.086;5.150;2023-11-21T03:54:20;101983.06;;;11.18;100.00
36726;BME280;44936;52.086;5.150;2023-11-21T03:56:45;101988.28;;;11.16;100.00
36726;BME280;44936;52.086;5.150;2023-11-21T03:59:10;101965.34;;;11.06;100.00
36726;BME280;44936;52.086;5.150;2023-11-21T04:01:36;101990.09;;;11.20;100.00
36726;BME280;44936;52.086;5.150;2023-11-21T04:04:02;101990.94;;;11.18;100.00
36726;BME280;44936;52.086;5.150;2023-11-21T04:06:27;101990.06;;;11.19;100.00
36726;BME280;44936;52.086;5.150;2023-11-21T04:08:52;101958.91;;;10.90;100.00
36726;BME280;44936;52.086;5.150;2023-11-21T04:11:18;101971.22;;;10.94;100.00
36726;BME280;44936;52.086;5.150;2023-11-21T04:13:43;101981.91;;;11.03;100.00
36726;BME280;44936;52.086;5.150;2023-11-21T04:16:09;102005.72;;;11.13;100.00
36726;BME280;44936;52.086;5.150;2023-11-21T04:18:38;102010.19;;;11.17;100.00
36726;BME280;44936;52.086;5.150;2023-11-21T04:21:05;102009.34;;;11.19;100.00
36726;BME280;44936;52.086;5.150;2023-11-21T04:23:30;101977.47;;;10.99;100.00
36726;BME280;44936;52.086;5.150;2023-11-21T04:25:58;101995.97;;;11.05;100.00
36726;BME280;44936;52.086;5.150;2023-11-21T04:28:24;102017.22;;;11.19;100.00
36726;BME280;44936;52.086;5.150;2023-11-21T04:30:50;102028.50;;;11.14;100.00
36726;BME280;44936;52.086;5.150;2023-11-21T04:33:15;102032.97;;;11.19;100.00
36726;BME280;44936;52.086;5.150;2023-11-21T04:35:41;102047.97;;;11.25;100.00
36726;BME280;44936;52.086;5.150;2023-11-21T04:38:06;102050.53;;;11.22;100.00
36726;BME280;44936;52.086;5.150;2023-11-21T04:40:32;102056.78;;;11.28;100.00
36726;BME280;44936;52.086;5.150;2023-11-21T04:42:57;102041.00;;;11.27;100.00
36726;BME280;44936;52.086;5.150;2023-11-21T04:45:22;102047.16;;;11.27;100.00
36726;BME280;44936;52.086;5.150;2023-11-21T04:47:48;102048.22;;;11.39;100.00
36726;BME280;44936;52.086;5.150;2023-11-21T04:50:13;102050.06;;;11.43;100.00
36726;BME280;44936;52.086;5.150;2023-11-21T04:52:39;102039.44;;;11.37;100.00
36726;BME280;44936;52.086;5.150;2023-11-21T04:55:04;102054.50;;;11.45;100.00
36726;BME280;44936;52.086;5.150;2023-11-21T04:57:32;102048.41;;;11.48;100.00
36726;BME280;44936;52.086;5.150;2023-11-21T04:59:57;102053.72;;;11.51;100.00
36726;BME280;44936;52.086;5.150;2023-11-21T05:02:22;102061.63;;;11.51;100.00
36726;BME280;44936;52.086;5.150;2023-11-21T05:04:48;102058.16;;;11.53;100.00
36726;BME280;44936;52.086;5.150;2023-11-21T05:07:13;102058.09;;;11.49;100.00
36726;BME280;44936;52.086;5.150;2023-11-21T05:09:42;102071.28;;;11.53;100.00
36726;BME280;44936;52.086;5.150;2023-11-21T05:12:09;102073.06;;;11.56;100.00
36726;BME280;44936;52.086;5.150;2023-11-21T05:14:35;102070.31;;;11.48;100.00
36726;BME280;44936;52.086;5.150;2023-11-21T05:17:00;102070.41;;;11.53;100.00
36726;BME280;44936;52.086;5.150;2023-11-21T05:19:26;102070.44;;;11.54;100.00
36726;BME280;44936;52.086;5.150;2023-11-21T05:21:52;102065.97;;;11.49;100.00
36726;BME280;44936;52.086;5.150;2023-11-21T05:24:17;102072.16;;;11.52;100.00
36726;BME280;44936;52.086;5.150;2023-11-21T05:26:42;102083.56;;;11.54;100.00
36726;BME280;44936;52.086;5.150;2023-11-21T05:29:08;102056.22;;;11.43;100.00
36726;BME280;44936;52.086;5.150;2023-11-21T05:31:35;102085.34;;;11.55;100.00
36726;BME280;44936;52.086;5.150;2023-11-21T05:34:00;102090.56;;;11.54;100.00
36726;BME280;44936;52.086;5.150;2023-11-21T05:36:25;102095.84;;;11.55;100.00
36726;BME280;44936;52.086;5.150;2023-11-21T05:38:51;102094.06;;;11.54;100.00
36726;BME280;44936;52.086;5.150;2023-11-21T05:41:16;102096.72;;;11.56;100.00
36726;BME280;44936;52.086;5.150;2023-11-21T05:43:42;102095.03;;;11.58;100.00
36726;BME280;44936;52.086;5.150;2023-11-21T05:46:07;102094.16;;;11.57;100.00
36726;BME280;44936;52.086;5.150;2023-11-21T05:48:34;102111.38;;;11.43;100.00
36726;BME280;44936;52.086;5.150;2023-11-21T05:51:03;102107.84;;;11.41;100.00
36726;BME280;44936;52.086;5.150;2023-11-21T05:53:29;102108.81;;;11.48;100.00
36726;BME280;44936;52.086;5.150;2023-11-21T05:55:54;102106.16;;;11.45;100.00
36726;BME280;44936;52.086;5.150;2023-11-21T05:58:20;102119.31;;;11.46;100.00
36726;BME280;44936;52.086;5.150;2023-11-21T06:00:45;102122.84;;;11.48;100.00
36726;BME280;44936;52.086;5.150;2023-11-21T06:03:10;102118.44;;;11.46;100.00
36726;BME280;44936;52.086;5.150;2023-11-21T06:05:36;102127.47;;;11.58;100.00
36726;BME280;44936;52.086;5.150;2023-11-21T06:08:01;102136.94;;;11.50;100.00
36726;BME280;44936;52.086;5.150;2023-11-21T06:10:27;102137.97;;;11.58;100.00
36726;BME280;44936;52.086;5.150;2023-11-21T06:12:53;102135.22;;;11.54;100.00
36726;BME280;44936;52.086;5.150;2023-11-21T06:15:18;102141.56;;;11.63;100.00
36726;BME280;44936;52.086;5.150;2023-11-21T06:17:45;102154.69;;;11.63;100.00
36726;BME280;44936;52.086;5.150;2023-11-21T06:20:14;102170.41;;;11.60;100.00
36726;BME280;44936;52.086;5.150;2023-11-21T06:22:42;102159.16;;;11.68;100.00
36726;BME280;44936;52.086;5.150;2023-11-21T06:25:08;102165.19;;;11.63;100.00
36726;BME280;44936;52.086;5.150;2023-11-21T06:27:45;102155.56;;;11.64;100.00
36726;BME280;44936;52.086;5.150;2023-11-21T06:30:11;102159.16;;;11.68;100.00
36726;BME280;44936;52.086;5.150;2023-11-21T06:32:38;102153.78;;;11.61;100.00
36726;BME280;44936;52.086;5.150;2023-11-21T06:35:05;102155.53;;;11.61;100.00
36726;BME280;44936;52.086;5.150;2023-11-21T06:37:31;102165.09;;;11.57;100.00
36726;BME280;44936;52.086;5.150;2023-11-21T06:39:58;102162.56;;;11.63;100.00
36726;BME280;44936;52.086;5.150;2023-11-21T06:42:24;102158.91;;;11.55;100.00
36726;BME280;44936;52.086;5.150;2023-11-21T06:44:50;102169.75;;;11.72;100.00
36726;BME280;44936;52.086;5.150;2023-11-21T06:47:23;102169.84;;;11.77;100.00
36726;BME280;44936;52.086;5.150;2023-11-21T06:49:52;102174.13;;;11.72;100.00
36726;BME280;44936;52.086;5.150;2023-11-21T06:52:18;102181.06;;;11.67;100.00
36726;BME280;44936;52.086;5.150;2023-11-21T06:54:44;102167.72;;;11.57;100.00
36726;BME280;44936;52.086;5.150;2023-11-21T06:57:10;102167.84;;;11.65;100.00
36726;BME280;44936;52.086;5.150;2023-11-21T06:59:35;102182.00;;;11.72;100.00
36726;BME280;44936;52.086;5.150;2023-11-21T07:02:01;102200.88;;;11.93;100.00
36726;BME280;44936;52.086;5.150;2023-11-21T07:04:27;102200.94;;;11.96;100.00
36726;BME280;44936;52.086;5.150;2023-11-21T07:06:55;102202.75;;;12.00;100.00
36726;BME280;44936;52.086;5.150;2023-11-21T07:09:21;102212.38;;;12.00;100.00
36726;BME280;44936;52.086;5.150;2023-11-21T07:11:48;102206.31;;;12.02;100.00
36726;BME280;44936;52.086;5.150;2023-11-21T07:14:14;102202.72;;;11.99;100.00
36726;BME280;44936;52.086;5.150;2023-11-21T07:16:39;102211.44;;;11.96;100.00
36726;BME280;44936;52.086;5.150;2023-11-21T07:19:05;102217.38;;;11.86;100.00
36726;BME280;44936;52.086;5.150;2023-11-21T07:21:34;102225.19;;;11.83;100.00
36726;BME280;44936;52.086;5.150;2023-11-21T07:24:00;102217.47;;;11.92;100.00
36726;BME280;44936;52.086;5.150;2023-11-21T07:26:26;102217.63;;;11.98;100.00
36726;BME280;44936;52.086;5.150;2023-11-21T07:28:51;102226.13;;;11.85;100.00
36726;BME280;44936;52.086;5.150;2023-11-21T07:31:17;102230.72;;;11.95;100.00
36726;BME280;44936;52.086;5.150;2023-11-21T07:33:42;102224.63;;;11.99;100.00
36726;BME280;44936;52.086;5.150;2023-11-21T07:36:08;102216.78;;;12.01;100.00
36726;BME280;44936;52.086;5.150;2023-11-21T07:38:33;102230.09;;;12.10;100.00
36726;BME280;44936;52.086;5.150;2023-11-21T07:40:59;102225.78;;;12.12;100.00
36726;BME280;44936;52.086;5.150;2023-11-21T07:43:27;102232.84;;;12.14;100.00
36726;BME280;44936;52.086;5.150;2023-11-21T07:45:52;102244.03;;;12.04;100.00
36726;BME280;44936;52.086;5.150;2023-11-21T07:48:17;102247.69;;;12.12;100.00
36726;BME280;44936;52.086;5.150;2023-11-21T07:50:43;102251.78;;;11.97;100.00
36726;BME280;44936;52.086;5.150;2023-11-21T07:53:08;102235.34;;;12.08;100.00
36726;BME280;44936;52.086;5.150;2023-11-21T07:55:34;102251.78;;;11.98;100.00
36726;BME280;44936;52.086;5.150;2023-11-21T07:58:01;102260.31;;;12.30;100.00
36726;BME280;44936;52.086;5.150;2023-11-21T08:00:26;102254.88;;;12.21;100.00
36726;BME280;44936;52.086;5.150;2023-11-21T08:02:55;102269.84;;;12.25;100.00
36726;BME280;44936;52.086;5.150;2023-11-21T08:05:20;102279.34;;;12.17;100.00
36726;BME280;44936;52.086;5.150;2023-11-21T08:07:45;102277.53;;;12.13;100.00
36726;BME280;44936;52.086;5.150;2023-11-21T08:10:11;102273.22;;;12.18;100.00
36726;BME280;44936;52.086;5.150;2023-11-21T08:12:36;102269.53;;;12.08;100.00
36726;BME280;44936;52.086;5.150;2023-11-21T08:15:02;102283.56;;;12.09;100.00
36726;BME280;44936;52.086;5.150;2023-11-21T08:17:28;102267.41;;;11.90;100.00
36726;BME280;44936;52.086;5.150;2023-11-21T08:19:54;102302.78;;;12.05;100.00
36726;BME280;44936;52.086;5.150;2023-11-21T08:22:20;102315.94;;;12.05;100.00
36726;BME280;44936;52.086;5.150;2023-11-21T08:24:45;102324.69;;;12.04;100.00
36726;BME280;44936;52.086;5.150;2023-11-21T08:27:12;102325.56;;;12.04;100.00
36726;BME280;44936;52.086;5.150;2023-11-21T08:29:37;102327.13;;;11.95;100.00
36726;BME280;44936;52.086;5.150;2023-11-21T08:32:02;102327.09;;;11.93;100.00
36726;BME280;44936;52.086;5.150;2023-11-21T08:34:28;102331.84;;;12.11;100.00
36726;BME280;44936;52.086;5.150;2023-11-21T08:36:54;102332.16;;;12.28;100.00
36726;BME280;44936;52.086;5.150;2023-11-21T08:39:20;102303.34;;;11.90;100.00
36726;BME280;44936;52.086;5.150;2023-11-21T08:41:49;102301.91;;;12.06;100.00
36726;BME280;44936;52.086;5.150;2023-11-21T08:44:15;102335.03;;;12.40;100.00
36726;BME280;44936;52.086;5.150;2023-11-21T08:46:43;102337.56;;;12.35;100.00
36726;BME280;44936;52.086;5.150;2023-11-21T08:49:10;102342.97;;;12.41;100.00
36726;BME280;44936;52.086;5.150;2023-11-21T08:51:36;102342.84;;;12.35;100.00
36726;BME280;44936;52.086;5.150;2023-11-21T08:54:02;102349.06;;;12.39;100.00
36726;BME280;44936;52.086;5.150;2023-11-21T08:56:29;102349.09;;;12.42;100.00
36726;BME280;44936;52.086;5.150;2023-11-21T08:58:55;102359.81;;;12.51;100.00
36726;BME280;44936;52.086;5.150;2023-11-21T09:01:22;102356.28;;;12.51;100.00
36726;BME280;44936;52.086;5.150;2023-11-21T09:03:48;102371.41;;;12.62;100.00
36726;BME280;44936;52.086;5.150;2023-11-21T09:06:15;102372.25;;;12.60;100.00
36726;BME280;44936;52.086;5.150;2023-11-21T09:08:40;102384.03;;;12.80;100.00
36726;BME280;44936;52.086;5.150;2023-11-21T09:11:07;102384.41;;;12.53;100.00
36726;BME280;44936;52.086;5.150;2023-11-21T09:13:33;102395.03;;;12.56;100.00
36726;BME280;44936;52.086;5.150;2023-11-21T09:15:58;102400.47;;;12.65;100.00
36726;BME280;44936;52.086;5.150;2023-11-21T09:18:23;102394.06;;;12.53;100.00
36726;BME280;44936;52.086;5.150;2023-11-21T09:20:49;102401.25;;;12.61;100.00
36726;BME280;44936;52.086;5.150;2023-11-21T09:23:14;102389.84;;;12.62;100.00
36726;BME280;44936;52.086;5.150;2023-11-21T09:25:39;102391.88;;;12.32;100.00
36726;BME280;44936;52.086;5.150;2023-11-21T09:28:05;102419.06;;;12.31;100.00
36726;BME280;44936;52.086;5.150;2023-11-21T09:30:36;102421.16;;;12.47;100.00
36726;BME280;44936;52.086;5.150;2023-11-21T09:33:02;102422.28;;;12.61;100.00
36726;BME280;44936;52.086;5.150;2023-11-21T09:35:27;102425.44;;;12.43;100.00
36726;BME280;44936;52.086;5.150;2023-11-21T09:37:53;102433.31;;;12.42;100.00
36726;BME280;44936;52.086;5.150;2023-11-21T09:40:21;102433.38;;;12.45;100.00
36726;BME280;44936;52.086;5.150;2023-11-21T09:42:57;102443.09;;;12.47;100.00
36726;BME280;44936;52.086;5.150;2023-11-21T09:45:28;102449.81;;;12.35;100.00
36726;BME280;44936;52.086;5.150;2023-11-21T09:47:56;102445.38;;;12.32;100.00
36726;BME280;44936;52.086;5.150;2023-11-21T09:50:22;102457.66;;;12.32;100.00
36726;BME280;44936;52.086;5.150;2023-11-21T09:55:20;102457.41;;;12.62;100.00
36726;BME280;44936;52.086;5.150;2023-11-21T09:57:47;102460.91;;;12.62;100.00
36726;BME280;44936;52.086;5.150;2023-11-21T10:00:14;102462.66;;;12.62;100.00
36726;BME280;44936;52.086;5.150;2023-11-21T10:02:43;102463.63;;;12.65;100.00
36726;BME280;44936;52.086;5.150;2023-11-21T10:05:09;102469.13;;;12.76;100.00
36726;BME280;44936;52.086;5.150;2023-11-21T10:07:36;102466.44;;;12.73;100.00
36726;BME280;44936;52.086;5.150;2023-11-21T10:10:05;102471.09;;;12.45;100.00
36726;BME280;44936;52.086;5.150;2023-11-21T10:12:31;102480.72;;;12.45;100.00
36726;BME280;44936;52.086;5.150;2023-11-21T10:14:58;102480.44;;;12.30;100.00
36726;BME280;44936;52.086;5.150;2023-11-21T10:17:26;102483.09;;;12.31;100.00
36726;BME280;44936;52.086;5.150;2023-11-21T10:19:56;102492.72;;;12.31;100.00
36726;BME280;44936;52.086;5.150;2023-11-21T10:22:22;102504.13;;;12.31;100.00
36726;BME280;44936;52.086;5.150;2023-11-21T10:24:48;102508.56;;;12.34;100.00
36726;BME280;44936;52.086;5.150;2023-11-21T10:27:13;102516.25;;;12.25;100.00
36726;BME280;44936;52.086;5.150;2023-11-21T10:29:39;102518.25;;;12.36;100.00
36726;BME280;44936;52.086;5.150;2023-11-21T10:32:05;102510.84;;;12.18;100.00
36726;BME280;44936;52.086;5.150;2023-11-21T10:34:31;102535.00;;;12.38;100.00
36726;BME280;44936;52.086;5.150;2023-11-21T10:36:56;102534.19;;;12.03;100.00
36726;BME280;44936;52.086;5.150;2023-11-21T10:39:23;102545.81;;;12.13;100.00
36726;BME280;44936;52.086;5.150;2023-11-21T10:41:52;102535.16;;;12.08;100.00
36726;BME280;44936;52.086;5.150;2023-11-21T10:44:18;102544.97;;;12.15;100.00
36726;BME280;44936;52.086;5.150;2023-11-21T10:46:50;102555.63;;;12.20;100.00
36726;BME280;44936;52.086;5.150;2023-11-21T10:49:19;102557.50;;;12.26;100.00
36726;BME280;44936;52.086;5.150;2023-11-21T10:51:45;102568.00;;;12.26;100.00
36726;BME280;44936;52.086;5.150;2023-11-21T10:54:10;102567.25;;;12.30;100.00
36726;BME280;44936;52.086;5.150;2023-11-21T10:56:39;102543.81;;;12.03;100.00
36726;BME280;44936;52.086;5.150;2023-11-21T10:59:09;102569.22;;;12.02;100.00
36726;BME280;44936;52.086;5.150;2023-11-21T11:01:36;102557.94;;;12.08;100.00
36726;BME280;44936;52.086;5.150;2023-11-21T11:04:04;102573.16;;;12.19;100.00
36726;BME280;44936;52.086;5.150;2023-11-21T11:06:31;102571.13;;;12.09;100.00
36726;BME280;44936;52.086;5.150;2023-11-21T11:08:58;102566.81;;;12.11;100.00
36726;BME280;44936;52.086;5.150;2023-11-21T11:11:25;102585.06;;;12.05;100.00
36726;BME280;44936;52.086;5.150;2023-11-21T11:13:51;102583.19;;;12.01;100.00
36726;BME280;44936;52.086;5.150;2023-11-21T11:16:18;102578.31;;;12.16;100.00
36726;BME280;44936;52.086;5.150;2023-11-21T11:18:45;102573.50;;;11.99;100.00
36726;BME280;44936;52.086;5.150;2023-11-21T11:24:16;102584.59;;;11.87;100.00
36726;BME280;44936;52.086;5.150;2023-11-21T11:29:34;102586.00;;;12.07;100.00
36726;BME280;44936;52.086;5.150;2023-11-21T11:32:24;102586.25;;;12.18;100.00
36726;BME280;44936;52.086;5.150;2023-11-21T11:35:03;102590.59;;;12.16;100.00
36726;BME280;44936;52.086;5.150;2023-11-21T11:37:29;102588.38;;;11.98;100.00
36726;BME280;44936;52.086;5.150;2023-11-21T11:39:55;102598.31;;;12.10;100.00
36726;BME280;44936;52.086;5.150;2023-11-21T11:42:21;102591.66;;;12.24;100.00
36726;BME280;44936;52.086;5.150;2023-11-21T11:44:48;102606.81;;;11.98;100.00
36726;BME280;44936;52.086;5.150;2023-11-21T11:47:26;102604.84;;;11.91;100.00
36726;BME280;44936;52.086;5.150;2023-11-21T11:52:38;102597.09;;;11.96;100.00
36726;BME280;44936;52.086;5.150;2023-11-21T11:55:09;102608.75;;;12.05;100.00
36726;BME280;44936;52.086;5.150;2023-11-21T11:57:40;102614.88;;;12.06;100.00
36726;BME280;44936;52.086;5.150;2023-11-21T12:02:42;102623.06;;;12.18;100.00
36726;BME280;44936;52.086;5.150;2023-11-21T12:05:11;102627.19;;;12.07;100.00
36726;BME280;44936;52.086;5.150;2023-11-21T12:10:14;102621.31;;;12.18;100.00
36726;BME280;44936;52.086;5.150;2023-11-21T12:12:51;102631.16;;;12.26;100.00
36726;BME280;44936;52.086;5.150;2023-11-21T12:15:18;102637.75;;;12.08;100.00
36726;BME280;44936;52.086;5.150;2023-11-21T12:17:44;102641.31;;;12.10;100.00
36726;BME280;44936;52.086;5.150;2023-11-21T12:20:11;102635.03;;;12.05;100.00
36726;BME280;44936;52.086;5.150;2023-11-21T12:22:44;102636.63;;;12.35;100.00
36726;BME280;44936;52.086;5.150;2023-11-21T12:25:10;102627.59;;;12.24;100.00
36726;BME280;44936;52.086;5.150;2023-11-21T12:27:37;102630.59;;;12.37;100.00
36726;BME280;44936;52.086;5.150;2023-11-21T12:30:03;102633.00;;;12.28;100.00
36726;BME280;44936;52.086;5.150;2023-11-21T12:32:29;102640.91;;;12.30;100.00
36726;BME280;44936;52.086;5.150;2023-11-21T12:34:55;102639.50;;;12.09;100.00
36726;BME280;44936;52.086;5.150;2023-11-21T12:37:20;102662.59;;;12.19;100.00
36726;BME280;44936;52.086;5.150;2023-11-21T12:39:47;102665.53;;;11.99;100.00
36726;BME280;44936;52.086;5.150;2023-11-21T12:42:12;102671.00;;;12.06;100.00
36726;BME280;44936;52.086;5.150;2023-11-21T12:44:39;102661.78;;;12.22;100.00
36726;BME280;44936;52.086;5.150;2023-11-21T12:47:06;102668.50;;;12.11;100.00
36726;BME280;44936;52.086;5.150;2023-11-21T12:49:31;102671.16;;;12.12;100.00
36726;BME280;44936;52.086;5.150;2023-11-21T12:51:59;102673.13;;;12.19;100.00